Time;durP1;ratioP1;P1;durP2;ratioP2;P2;SDS_P1;SDS_P2;PMS_P1;PMS_P2;Temp;Humidity;BMP_temperature;BMP_pressure;BME280_temperature;BME280_humidity;BME280_pressure;Samples;Min_cycle;Max_cycle;Signal;HPM_P1;HPM_P2
2021/09/09 00:00:31;;;;;;;30.30;14.60;;;;;;;13.79;58.87;99534.90;111947;1199;113195;-83
2021/09/09 00:03:05;;;;;;;29.40;15.30;;;;;;;13.70;58.76;99532.02;111940;1207;99046;-83
2021/09/09 00:05:34;;;;;;;30.90;16.50;;;;;;;13.61;58.86;99525.98;111855;1206;107420;-84
2021/09/09 00:08:02;;;;;;;30.10;15.90;;;;;;;13.51;59.04;99525.65;111930;1199;97339;-83
2021/09/09 00:10:30;;;;;;;27.00;14.10;;;;;;;13.45;59.13;99525.55;111928;1200;99035;-82
2021/09/09 00:12:58;;;;;;;31.00;16.60;;;;;;;13.37;59.06;99528.63;112037;1200;111134;-82
2021/09/09 00:15:26;;;;;;;29.10;15.80;;;;;;;13.26;59.26;99528.46;111982;1206;99091;-82
2021/09/09 00:17:54;;;;;;;28.80;15.60;;;;;;;13.16;59.51;99527.98;111978;1206;108205;-82
2021/09/09 00:20:22;;;;;;;31.10;16.50;;;;;;;13.09;59.56;99524.86;111974;1199;99100;-82
2021/09/09 00:22:50;;;;;;;32.20;15.70;;;;;;;13.07;59.88;99525.41;112018;1200;99041;-80
2021/09/09 00:25:18;;;;;;;29.50;15.50;;;;;;;13.09;60.07;99527.05;112041;1206;112659;-82
2021/09/09 00:27:46;;;;;;;29.50;15.30;;;;;;;13.12;60.05;99527.77;111997;1206;99023;-83
2021/09/09 00:30:14;;;;;;;30.10;16.30;;;;;;;13.13;60.17;99526.76;112005;1206;107466;-81
2021/09/09 00:32:42;;;;;;;29.50;14.80;;;;;;;13.15;60.28;99525.35;111990;1200;98945;-82
2021/09/09 00:35:11;;;;;;;32.20;16.80;;;;;;;13.18;60.31;99525.14;112009;1206;99034;-83
2021/09/09 00:37:39;;;;;;;29.00;15.70;;;;;;;13.20;60.32;99528.55;111934;1206;112429;-80
2021/09/09 00:40:09;;;;;;;29.60;16.10;;;;;;;13.22;60.39;99528.74;111962;1206;96456;-80
2021/09/09 00:42:40;;;;;;;31.20;16.00;;;;;;;13.23;60.50;99528.66;112021;1206;107391;-81
2021/09/09 00:45:10;;;;;;;28.70;15.50;;;;;;;13.24;60.52;99526.23;112013;1199;98932;-84
2021/09/09 00:47:40;;;;;;;29.70;15.70;;;;;;;13.25;60.46;99525.83;112004;1199;99039;-84
2021/09/09 00:50:09;;;;;;;29.20;15.50;;;;;;;13.23;60.54;99527.22;111965;1206;112464;-83
2021/09/09 00:52:44;;;;;;;29.00;15.40;;;;;;;13.23;60.61;99527.04;111955;1206;99040;-82
2021/09/09 00:55:13;;;;;;;29.20;16.40;;;;;;;13.24;60.69;99523.38;111986;1206;106505;-81
2021/09/09 00:57:41;;;;;;;28.80;16.00;;;;;;;13.25;60.66;99524.94;111976;1206;99024;-81
2021/09/09 01:00:10;;;;;;;28.10;16.10;;;;;;;13.25;60.74;99520.86;111970;1200;98967;-81
2021/09/09 01:02:39;;;;;;;30.00;16.40;;;;;;;13.26;60.86;99521.31;111999;1206;112085;-81
2021/09/09 01:05:08;;;;;;;30.50;15.60;;;;;;;13.26;60.89;99520.79;111976;1206;96406;-81
2021/09/09 01:07:36;;;;;;;28.40;15.40;;;;;;;13.26;60.91;99520.77;111927;1200;107471;-82
2021/09/09 01:10:05;;;;;;;28.00;14.60;;;;;;;13.24;60.83;99518.56;111949;1199;99012;-82
2021/09/09 01:12:34;;;;;;;27.80;14.90;;;;;;;13.24;60.94;99517.94;111995;1206;100108;-81
2021/09/09 01:15:05;;;;;;;28.50;15.30;;;;;;;13.24;60.94;99520.06;111977;1206;112318;-81
2021/09/09 01:17:33;;;;;;;31.80;15.60;;;;;;;13.22;61.08;99517.90;111947;1206;98959;-82
2021/09/09 01:20:01;;;;;;;28.90;16.40;;;;;;;13.21;61.10;99525.64;111945;1207;107964;-83
2021/09/09 01:22:30;;;;;;;26.40;15.10;;;;;;;13.19;61.02;99525.76;112002;1200;98943;-83
2021/09/09 01:24:59;;;;;;;28.30;15.90;;;;;;;13.18;61.20;99522.66;111995;1206;96388;-84
2021/09/09 01:27:27;;;;;;;29.80;14.90;;;;;;;13.18;61.16;99521.05;111970;1206;112532;-82
2021/09/09 01:29:55;;;;;;;28.80;15.90;;;;;;;13.16;61.26;99520.86;111969;1206;98923;-83
2021/09/09 01:32:24;;;;;;;28.30;15.20;;;;;;;13.16;61.30;99521.22;111868;1200;107493;-82
2021/09/09 01:34:52;;;;;;;26.10;14.00;;;;;;;13.17;61.30;99525.23;111879;1199;99057;-83
2021/09/09 01:37:19;;;;;;;29.10;15.00;;;;;;;13.17;61.36;99524.85;111943;1200;99001;-82
2021/09/09 01:39:47;;;;;;;28.20;14.50;;;;;;;13.16;61.39;99526.56;111932;1207;111597;-82
2021/09/09 01:42:16;;;;;;;28.30;15.30;;;;;;;13.15;61.47;99526.08;111926;1207;97927;-82
2021/09/09 01:44:44;;;;;;;30.40;15.50;;;;;;;13.13;61.45;99529.45;111933;1207;107493;-83
2021/09/09 01:47:13;;;;;;;28.70;15.10;;;;;;;13.10;61.41;99526.45;111871;1200;96564;-83
2021/09/09 01:49:41;;;;;;;28.50;14.80;;;;;;;13.07;61.50;99528.63;111938;1200;100667;-79
2021/09/09 01:52:09;;;;;;;29.10;14.70;;;;;;;13.04;61.58;99526.52;111905;1200;112497;-81
2021/09/09 01:54:37;;;;;;;27.80;14.60;;;;;;;13.02;61.57;99529.19;111874;1200;98907;-83
2021/09/09 01:57:05;;;;;;;28.30;15.00;;;;;;;12.99;61.38;99525.32;111963;1207;107587;-81
2021/09/09 01:59:33;;;;;;;29.50;14.90;;;;;;;12.92;61.48;99525.25;111907;1199;98950;-81
2021/09/09 02:02:01;;;;;;;26.80;15.10;;;;;;;12.88;61.57;99526.51;111939;1206;97388;-81
2021/09/09 02:04:29;;;;;;;28.70;15.00;;;;;;;12.82;61.61;99523.92;111927;1207;112467;-81
2021/09/09 02:06:57;;;;;;;29.00;14.80;;;;;;;12.76;61.71;99526.61;111937;1206;99035;-81
2021/09/09 02:09:25;;;;;;;27.40;14.90;;;;;;;12.75;61.81;99521.92;111960;1206;107379;-80
2021/09/09 02:11:52;;;;;;;27.00;14.20;;;;;;;12.74;61.86;99525.74;111962;1200;98888;-80
2021/09/09 02:14:20;;;;;;;29.40;14.40;;;;;;;12.72;61.86;99522.67;111923;1203;99064;-80
2021/09/09 02:16:48;;;;;;;27.50;13.90;;;;;;;12.69;61.71;99523.25;111924;1207;112494;-80
2021/09/09 02:19:16;;;;;;;27.10;14.40;;;;;;;12.58;61.57;99520.14;111911;1207;98929;-80
2021/09/09 02:21:44;;;;;;;26.80;14.10;;;;;;;12.49;61.77;99520.05;111932;1207;105891;-80
2021/09/09 02:24:12;;;;;;;29.00;14.20;;;;;;;12.45;62.00;99517.50;111941;1199;99002;-78
2021/09/09 02:26:39;;;;;;;26.60;14.40;;;;;;;12.44;62.11;99515.48;111912;1207;99090;-77
2021/09/09 02:29:07;;;;;;;27.30;14.30;;;;;;;12.45;62.21;99517.36;111924;1207;112494;-80
2021/09/09 02:31:35;;;;;;;23.60;12.20;;;;;;;12.45;62.35;99512.89;111946;1200;98917;-81
2021/09/09 02:34:03;;;;;;;26.50;13.70;;;;;;;12.44;62.16;99511.75;111816;1208;106616;-80
2021/09/09 02:36:32;;;;;;;28.20;14.10;;;;;;;12.40;62.11;99514.89;111878;1207;98231;-79
2021/09/09 02:39:00;;;;;;;26.20;13.70;;;;;;;12.36;62.33;99512.13;111924;1206;98903;-81
2021/09/09 02:41:28;;;;;;;26.80;14.10;;;;;;;12.36;62.47;99511.61;111919;1207;112200;-80
2021/09/09 02:43:56;;;;;;;26.20;13.40;;;;;;;12.36;62.55;99509.29;111917;1207;98903;-81
2021/09/09 02:46:24;;;;;;;25.40;13.00;;;;;;;12.36;62.51;99508.75;111880;1206;107553;-80
2021/09/09 02:48:52;;;;;;;28.70;13.50;;;;;;;12.34;62.61;99510.50;111897;1200;98958;-80
2021/09/09 02:51:19;;;;;;;24.90;13.00;;;;;;;12.32;62.60;99508.86;111921;1200;99038;-81
2021/09/09 02:53:47;;;;;;;24.80;12.90;;;;;;;12.29;62.73;99508.19;111993;1206;110595;-82
2021/09/09 02:56:16;;;;;;;27.80;13.10;;;;;;;12.28;62.58;99505.64;111924;1206;99095;-81
2021/09/09 02:58:43;;;;;;;25.40;12.70;;;;;;;12.24;62.76;99501.96;111915;1207;107578;-81
2021/09/09 03:01:12;;;;;;;24.10;12.50;;;;;;;12.22;62.66;99502.83;111937;1200;99029;-81
2021/09/09 03:03:41;;;;;;;25.30;13.90;;;;;;;12.18;62.78;99502.39;111954;1200;98951;-77
2021/09/09 03:06:09;;;;;;;24.90;13.40;;;;;;;12.18;63.01;99504.16;111905;1206;112557;-76
2021/09/09 03:08:37;;;;;;;27.10;12.70;;;;;;;12.18;62.82;99503.80;111971;1201;99049;-80
2021/09/09 03:11:05;;;;;;;23.70;12.80;;;;;;;12.14;62.64;99503.71;111942;1206;107457;-80
2021/09/09 03:13:32;;;;;;;24.50;13.20;;;;;;;12.10;62.99;99504.60;111954;1200;98945;-81
2021/09/09 03:16:00;;;;;;;24.60;12.90;;;;;;;12.07;63.04;99503.40;111987;1200;99383;-79
2021/09/09 03:18:28;;;;;;;25.60;13.40;;;;;;;12.05;63.13;99505.10;111927;1206;111611;-80
2021/09/09 03:20:56;;;;;;;26.60;13.90;;;;;;;12.04;63.20;99506.77;111952;1206;98949;-78
2021/09/09 03:23:24;;;;;;;28.60;14.70;;;;;;;12.04;62.93;99509.44;111956;1206;107503;-79
2021/09/09 03:25:52;;;;;;;28.50;14.70;;;;;;;11.98;63.14;99505.97;111937;1200;97707;-79
2021/09/09 03:28:20;;;;;;;25.70;13.40;;;;;;;11.95;63.14;99506.36;111953;1200;98958;-79
2021/09/09 03:30:48;;;;;;;27.80;14.10;;;;;;;11.90;63.17;99506.46;111944;1206;112497;-78
2021/09/09 03:33:16;;;;;;;26.20;13.50;;;;;;;11.86;63.30;99508.93;111975;1206;99030;-78
2021/09/09 03:35:44;;;;;;;27.40;14.20;;;;;;;11.83;63.31;99510.92;111967;1206;107381;-80
2021/09/09 03:38:12;;;;;;;24.60;12.70;;;;;;;11.80;63.18;99508.83;111968;1198;99286;-81
2021/09/09 03:40:41;;;;;;;25.70;13.70;;;;;;;11.76;63.44;99511.02;111916;1200;96451;-80
2021/09/09 03:43:08;;;;;;;25.80;13.70;;;;;;;11.75;63.41;99510.95;111917;1206;111194;-80
2021/09/09 03:45:36;;;;;;;27.60;13.30;;;;;;;11.73;63.42;99513.20;111928;1206;99023;-77
2021/09/09 03:48:04;;;;;;;25.80;13.20;;;;;;;11.69;63.38;99511.70;111897;1206;107153;-80
2021/09/09 03:50:33;;;;;;;24.90;13.50;;;;;;;11.67;63.65;99511.00;111839;1207;99048;-81
2021/09/09 03:53:00;;;;;;;26.90;13.50;;;;;;;11.67;63.71;99506.67;111929;1200;99034;-80
2021/09/09 03:55:28;;;;;;;28.00;13.90;;;;;;;11.68;63.75;99508.02;111912;1199;112112;-80
2021/09/09 03:57:59;;;;;;;24.20;12.80;;;;;;;11.70;63.83;99505.40;112272;1207;97682;-79
2021/09/09 04:00:27;;;;;;;24.70;13.10;;;;;;;11.71;63.89;99506.55;112278;1203;106154;-79
2021/09/09 04:02:55;;;;;;;26.10;14.20;;;;;;;11.73;63.93;99503.22;111876;1201;99021;-83
2021/09/09 04:05:24;;;;;;;24.30;12.00;;;;;;;11.75;63.96;99505.96;111888;1199;98038;-82
2021/09/09 04:07:52;;;;;;;24.00;12.00;;;;;;;11.75;63.86;99504.52;111913;1207;111536;-83
2021/09/09 04:10:20;;;;;;;23.60;12.30;;;;;;;11.71;63.75;99498.58;111939;1207;98943;-83
2021/09/09 04:12:49;;;;;;;26.00;13.00;;;;;;;11.67;63.88;99502.81;111846;1204;107558;-82
2021/09/09 04:15:17;;;;;;;23.70;12.60;;;;;;;11.62;63.91;99504.17;111928;1207;99052;-79
2021/09/09 04:17:45;;;;;;;25.40;13.00;;;;;;;11.60;64.02;99501.80;111926;1201;99062;-84
2021/09/09 04:20:13;;;;;;;24.70;12.80;;;;;;;11.63;64.16;99500.58;111921;1207;112608;-81
2021/09/09 04:22:42;;;;;;;24.80;12.60;;;;;;;11.66;64.20;99501.60;111899;1207;97444;-83
2021/09/09 04:25:11;;;;;;;25.90;13.00;;;;;;;11.69;64.33;99496.09;111885;1207;107505;-81
2021/09/09 04:27:41;;;;;;;24.50;12.50;;;;;;;11.71;64.27;99494.18;111851;1207;98928;-82
2021/09/09 04:30:09;;;;;;;24.40;13.10;;;;;;;11.72;64.29;99494.25;111932;1200;99044;-80
2021/09/09 04:32:38;;;;;;;29.00;14.30;;;;;;;11.76;64.39;99492.77;111928;1207;112414;-84
2021/09/09 04:35:06;;;;;;;26.10;12.90;;;;;;;11.78;64.41;99493.46;111919;1207;98981;-83
2021/09/09 04:37:36;;;;;;;23.80;12.50;;;;;;;11.81;64.52;99494.21;111878;1200;106319;-83
2021/09/09 04:40:05;;;;;;;23.80;11.80;;;;;;;11.83;64.36;99492.98;112019;1200;99036;-81
2021/09/09 04:42:33;;;;;;;24.40;13.30;;;;;;;11.86;64.47;99493.06;111913;1200;99041;-80
2021/09/09 04:45:01;;;;;;;25.40;12.80;;;;;;;11.89;64.62;99491.25;111897;1207;112599;-81
2021/09/09 04:47:29;;;;;;;24.30;11.30;;;;;;;11.93;64.61;99495.47;111981;1207;99028;-76
2021/09/09 04:49:57;;;;;;;24.00;12.00;;;;;;;11.96;64.62;99496.15;111915;1207;107479;-76
2021/09/09 04:52:25;;;;;;;21.30;11.30;;;;;;;11.99;64.60;99497.00;111925;1201;96497;-73
2021/09/09 04:54:54;;;;;;;23.00;12.20;;;;;;;12.03;64.71;99494.42;111958;1207;99630;-76
2021/09/09 04:57:22;;;;;;;23.10;11.60;;;;;;;12.06;64.77;99494.72;111947;1207;112438;-76
2021/09/09 04:59:51;;;;;;;23.80;11.60;;;;;;;12.10;64.64;99493.74;111929;1207;96747;-80
2021/09/09 05:02:19;;;;;;;22.20;11.50;;;;;;;12.12;64.80;99489.88;111955;1207;107556;-77
2021/09/09 05:04:47;;;;;;;25.20;12.20;;;;;;;12.16;64.74;99488.00;111932;1199;98946;-83
2021/09/09 05:07:15;;;;;;;25.20;11.20;;;;;;;12.19;64.87;99489.70;111953;1201;99033;-83
2021/09/09 05:09:43;;;;;;;23.90;11.70;;;;;;;12.23;64.85;99492.27;111909;1207;112555;-83
2021/09/09 05:12:10;;;;;;;24.50;11.70;;;;;;;12.27;64.97;99488.64;111897;1207;99031;-83
2021/09/09 05:14:38;;;;;;;22.80;11.40;;;;;;;12.31;64.83;99491.52;111885;1201;107774;-82
2021/09/09 05:17:07;;;;;;;25.30;12.50;;;;;;;12.34;65.04;99489.86;111957;1207;98947;-79
2021/09/09 05:19:35;;;;;;;26.70;11.80;;;;;;;12.39;65.12;99490.45;111900;1207;98960;-83
2021/09/09 05:22:03;;;;;;;21.40;11.00;;;;;;;12.42;64.98;99492.49;111899;1207;112456;-82
2021/09/09 05:24:31;;;;;;;21.40;10.80;;;;;;;12.45;64.82;99491.39;111890;1207;96371;-82
2021/09/09 05:26:59;;;;;;;21.50;10.90;;;;;;;12.47;64.95;99488.23;111927;1207;107514;-81
2021/09/09 05:29:27;;;;;;;23.50;11.80;;;;;;;12.50;65.09;99486.95;111959;1207;99035;-83
2021/09/09 05:31:55;;;;;;;22.10;11.20;;;;;;;12.53;65.06;99483.70;111957;1199;97736;-84
2021/09/09 05:34:23;;;;;;;25.70;11.90;;;;;;;12.56;65.08;99486.48;111937;1207;111940;-82
2021/09/09 05:36:50;;;;;;;24.30;11.80;;;;;;;12.58;65.16;99483.52;111871;1208;99015;-83
2021/09/09 05:39:19;;;;;;;24.20;12.80;;;;;;;12.61;65.18;99482.55;111933;1207;107481;-83
2021/09/09 05:41:46;;;;;;;25.10;13.80;;;;;;;12.66;65.30;99482.20;111920;1200;99053;-83
2021/09/09 05:44:14;;;;;;;24.20;11.90;;;;;;;12.71;65.27;99485.05;111969;1207;98303;-83
2021/09/09 05:46:42;;;;;;;24.70;12.10;;;;;;;12.76;65.22;99483.80;111949;1207;112439;-83
2021/09/09 05:49:10;;;;;;;25.00;11.90;;;;;;;12.79;65.18;99482.09;111895;1208;98968;-83
2021/09/09 05:51:38;;;;;;;22.70;11.70;;;;;;;12.85;65.32;99481.30;111908;1207;107488;-83
2021/09/09 05:54:05;;;;;;;24.40;11.80;;;;;;;12.89;65.38;99481.36;111945;1202;99450;-83
2021/09/09 05:56:33;;;;;;;25.40;12.60;;;;;;;12.94;65.41;99482.44;111992;1202;96411;-82
2021/09/09 05:59:01;;;;;;;24.30;11.60;;;;;;;12.99;65.48;99479.59;111958;1207;112115;-82
2021/09/09 06:01:30;;;;;;;24.90;13.10;;;;;;;13.04;65.55;99481.52;111950;1207;96331;-83
2021/09/09 06:04:00;;;;;;;23.00;11.70;;;;;;;13.08;65.57;99473.50;111980;1207;107485;-81
2021/09/09 06:06:29;;;;;;;22.40;11.80;;;;;;;13.14;65.62;99475.38;111871;1208;99080;-81
2021/09/09 06:08:57;;;;;;;25.20;11.50;;;;;;;13.20;65.65;99475.97;111904;1207;98962;-82
2021/09/09 06:11:25;;;;;;;24.90;11.30;;;;;;;13.26;65.61;99474.08;111891;1207;112240;-81
2021/09/09 06:13:53;;;;;;;24.70;11.50;;;;;;;13.34;65.49;99473.70;111884;1207;98884;-82
2021/09/09 06:16:21;;;;;;;25.00;10.60;;;;;;;13.41;65.59;99470.69;111911;1207;107590;-82
2021/09/09 06:18:49;;;;;;;26.30;11.20;;;;;;;13.49;65.61;99471.80;111852;1202;98945;-82
2021/09/09 06:21:16;;;;;;;24.90;11.90;;;;;;;13.58;65.50;99473.11;111943;1208;99103;-82
2021/09/09 06:23:44;;;;;;;21.80;10.30;;;;;;;13.67;65.60;99474.54;111888;1207;112500;-82
2021/09/09 06:26:18;;;;;;;23.70;11.70;;;;;;;13.76;65.58;99472.40;111907;1203;99058;-82
2021/09/09 06:28:47;;;;;;;23.40;11.20;;;;;;;13.86;65.61;99475.40;111970;1207;107115;-82
2021/09/09 06:31:15;;;;;;;23.70;10.80;;;;;;;13.95;65.68;99473.06;111870;1200;99016;-82
2021/09/09 06:33:43;;;;;;;19.80;9.60;;;;;;;14.04;65.71;99467.90;111924;1207;98986;-82
2021/09/09 06:36:11;;;;;;;21.20;10.40;;;;;;;14.11;65.81;99468.31;111960;1207;112508;-82
2021/09/09 06:38:39;;;;;;;24.10;10.40;;;;;;;14.21;65.73;99471.70;111971;1207;98898;-82
2021/09/09 06:41:07;;;;;;;22.60;10.90;;;;;;;14.29;65.79;99469.73;111946;1207;107567;-80
2021/09/09 06:43:35;;;;;;;21.20;10.90;;;;;;;14.38;65.75;99471.90;111911;1207;99060;-80
2021/09/09 06:46:04;;;;;;;25.50;11.70;;;;;;;14.47;65.72;99468.69;111945;1207;100088;-82
2021/09/09 06:48:33;;;;;;;25.40;11.40;;;;;;;14.56;65.78;99466.84;111972;1207;112481;-81
2021/09/09 06:51:01;;;;;;;26.40;10.50;;;;;;;14.67;65.86;99463.60;111910;1200;99485;-81
2021/09/09 06:53:30;;;;;;;21.10;9.80;;;;;;;14.79;65.90;99464.33;111901;1203;107459;-81
2021/09/09 06:55:59;;;;;;;23.90;10.70;;;;;;;14.89;65.95;99461.82;111920;1198;99040;-80
2021/09/09 06:58:27;;;;;;;21.90;10.10;;;;;;;14.99;65.86;99468.84;111815;1212;99005;-82
2021/09/09 07:00:55;;;;;;;28.60;11.20;;;;;;;15.09;65.84;99465.16;111855;1208;113073;-81
2021/09/09 07:03:24;;;;;;;21.40;10.80;;;;;;;15.19;65.84;99465.39;111929;1208;99061;-82
2021/09/09 07:05:53;;;;;;;22.20;9.90;;;;;;;15.29;65.97;99464.33;111962;1208;107503;-81
2021/09/09 07:08:25;;;;;;;23.40;10.50;;;;;;;15.39;65.99;99461.31;111961;1202;98970;-81
2021/09/09 07:10:53;;;;;;;19.10;9.10;;;;;;;15.50;66.02;99460.08;111956;1202;98898;-81
2021/09/09 07:13:23;;;;;;;21.10;10.00;;;;;;;15.60;65.93;99458.10;111929;1203;112474;-80
2021/09/09 07:15:51;;;;;;;24.90;10.40;;;;;;;15.74;66.05;99463.35;111948;1203;99651;-80
2021/09/09 07:18:19;;;;;;;22.10;9.80;;;;;;;15.88;66.06;99461.41;111865;1207;107478;-82
2021/09/09 07:20:47;;;;;;;21.70;10.60;;;;;;;16.01;65.94;99461.02;111941;1207;99060;-81
2021/09/09 07:23:14;;;;;;;19.30;9.00;;;;;;;16.21;65.88;99464.44;111974;1201;99038;-79
2021/09/09 07:25:43;;;;;;;20.30;9.80;;;;;;;17.33;64.35;99463.28;111940;1207;112422;-81
2021/09/09 07:28:11;;;;;;;19.70;9.30;;;;;;;19.19;62.59;99460.17;111905;1203;97309;-83
2021/09/09 07:30:40;;;;;;;18.20;8.50;;;;;;;20.80;62.26;99459.39;111918;1203;107468;-81
2021/09/09 07:33:09;;;;;;;20.40;8.60;;;;;;;22.22;62.12;99461.20;111869;1209;99025;-83
2021/09/09 07:35:37;;;;;;;19.40;8.30;;;;;;;23.47;61.18;99454.40;111942;1208;99003;-82
2021/09/09 07:38:05;;;;;;;20.60;8.90;;;;;;;24.64;61.08;99459.65;111921;1201;112334;-80
2021/09/09 07:40:33;;;;;;;18.80;8.20;;;;;;;25.69;61.07;99461.52;111860;1207;97309;-79
2021/09/09 07:43:01;;;;;;;17.40;8.40;;;;;;;26.63;60.68;99459.01;111825;1203;107407;-80
2021/09/09 07:45:29;;;;;;;15.80;8.00;;;;;;;27.35;60.66;99455.44;111826;1203;98963;-81
2021/09/09 07:47:57;;;;;;;16.90;7.80;;;;;;;27.93;59.97;99452.04;111880;1204;99031;-81
2021/09/09 07:50:25;;;;;;;17.60;7.70;;;;;;;28.69;59.65;99451.95;111869;1207;113595;-82
2021/09/09 07:52:56;;;;;;;15.90;7.60;;;;;;;29.41;59.21;99452.67;111936;1209;97450;-81
2021/09/09 07:55:24;;;;;;;13.80;7.60;;;;;;;29.95;58.99;99453.19;111969;1207;107501;-80
2021/09/09 07:57:52;;;;;;;15.90;8.00;;;;;;;30.39;58.74;99454.20;111994;1201;98940;-80
2021/09/09 08:00:21;;;;;;;17.40;7.80;;;;;;;30.66;57.94;99451.59;112022;1202;99117;-81
2021/09/09 08:02:49;;;;;;;13.60;7.10;;;;;;;30.95;58.01;99450.63;111997;1207;103851;-80
2021/09/09 08:05:17;;;;;;;14.50;7.40;;;;;;;31.15;57.22;99453.30;112017;1208;96812;-82
2021/09/09 08:07:46;;;;;;;16.50;8.20;;;;;;;31.48;56.42;99453.62;111962;1208;99098;-81
2021/09/09 08:10:17;;;;;;;15.20;8.50;;;;;;;31.84;56.44;99450.70;111940;1202;99005;-82
2021/09/09 08:12:47;;;;;;;14.90;8.30;;;;;;;32.25;56.22;99452.46;111997;1207;96308;-81
2021/09/09 08:15:16;;;;;;;17.70;8.10;;;;;;;32.62;55.71;99451.06;112043;1208;103945;-81
2021/09/09 08:17:46;;;;;;;11.70;6.90;;;;;;;32.92;55.36;99451.70;112033;1209;99037;-79
2021/09/09 08:20:15;;;;;;;14.50;6.90;;;;;;;33.17;54.79;99450.80;112030;1203;98924;-80
2021/09/09 08:22:43;;;;;;;13.70;7.70;;;;;;;33.31;54.07;99453.97;111999;1203;99010;-81
2021/09/09 08:25:12;;;;;;;15.30;7.20;;;;;;;33.40;53.31;99459.09;111988;1202;96387;-83
2021/09/09 08:27:39;;;;;;;15.30;8.10;;;;;;;33.42;53.02;99455.77;112018;1209;103937;-81
2021/09/09 08:30:08;;;;;;;11.50;6.30;;;;;;;33.53;52.77;99454.05;112002;1201;96778;-81
2021/09/09 08:32:37;;;;;;;14.50;7.80;;;;;;;33.63;51.87;99454.39;111980;1208;98852;-80
2021/09/09 08:35:05;;;;;;;15.10;7.30;;;;;;;33.79;51.51;99453.73;111944;1208;98949;-81
2021/09/09 08:37:33;;;;;;;14.60;7.20;;;;;;;33.84;50.99;99455.00;111952;1206;97326;-80
2021/09/09 08:40:04;;;;;;;16.60;7.50;;;;;;;33.81;50.48;99455.06;111927;1208;103862;-81
2021/09/09 08:42:33;;;;;;;15.30;7.00;;;;;;;33.88;50.53;99453.05;111993;1203;96466;-80
2021/09/09 08:45:01;;;;;;;13.30;7.20;;;;;;;34.01;49.79;99453.57;111883;1208;99066;-80
2021/09/09 08:47:31;;;;;;;13.00;7.10;;;;;;;34.03;49.17;99453.88;112005;1201;99035;-81
2021/09/09 08:49:59;;;;;;;13.90;7.50;;;;;;;34.10;48.79;99454.41;111997;1199;96786;-82
2021/09/09 08:52:27;;;;;;;10.80;6.50;;;;;;;34.34;48.40;99453.23;111891;1206;103859;-81
2021/09/09 08:54:54;;;;;;;14.70;8.10;;;;;;;34.42;47.51;99452.33;112006;1209;99427;-82
2021/09/09 08:57:22;;;;;;;12.70;6.70;;;;;;;34.39;47.10;99450.08;111968;1203;99670;-80
2021/09/09 08:59:50;;;;;;;13.60;6.90;;;;;;;34.40;46.86;99450.98;111868;1206;99008;-80
2021/09/09 09:02:31;;;;;;;14.20;6.60;;;;;;;34.35;46.31;99450.38;111925;1206;98954;-80
2021/09/09 09:05:07;;;;;;;12.80;7.10;;;;;;;34.13;44.71;99448.62;111992;1208;104034;-81
2021/09/09 09:07:37;;;;;;;12.60;6.80;;;;;;;33.75;44.76;99447.61;112008;1208;97858;-81
2021/09/09 09:10:09;;;;;;;13.70;6.70;;;;;;;33.64;44.39;99441.39;111979;1208;98932;-81
2021/09/09 09:12:47;;;;;;;14.70;7.40;;;;;;;33.54;44.04;99439.99;111956;1202;97710;-82
2021/09/09 09:15:16;;;;;;;16.20;7.40;;;;;;;33.73;43.94;99437.30;111932;1206;99051;-81
2021/09/09 09:18:01;;;;;;;12.50;6.60;;;;;;;33.95;43.96;99438.48;111995;1207;103861;-82
2021/09/09 09:20:49;;;;;;;13.20;6.40;;;;;;;33.94;43.07;99441.62;111993;1207;99453;-81
2021/09/09 09:23:22;;;;;;;13.90;6.40;;;;;;;33.89;42.76;99435.36;112016;1208;99115;-81
2021/09/09 09:26:04;;;;;;;16.70;6.90;;;;;;;33.90;42.35;99433.90;112002;1202;97422;-81
2021/09/09 09:28:45;;;;;;;;;;;;;;;33.92;41.78;99435.30;112004;1206;96397;-81
2021/09/09 09:31:15;;;;;;;13.30;7.40;;;;;;;33.64;41.18;99433.02;112023;1207;103846;-81
2021/09/09 09:33:55;;;;;;;15.50;7.40;;;;;;;33.53;41.33;99431.81;112030;1208;99457;-80
2021/09/09 09:36:28;;;;;;;12.00;6.60;;;;;;;33.64;41.16;99429.38;111989;1207;99030;-80
2021/09/09 09:39:12;;;;;;;14.30;6.90;;;;;;;33.87;41.17;99427.08;112013;1207;99695;-80
2021/09/09 09:42:03;;;;;;;13.50;6.40;;;;;;;34.10;40.92;99431.61;112053;1207;96391;-81
2021/09/09 09:44:40;;;;;;;14.50;6.60;;;;;;;34.07;40.24;99430.08;112038;1212;103862;-81
2021/09/09 09:47:11;;;;;;;15.00;6.90;;;;;;;33.68;39.96;99426.16;112055;1209;98978;-81
2021/09/09 09:49:43;;;;;;;14.70;7.40;;;;;;;33.17;39.67;99424.86;112019;1207;99490;-81
2021/09/09 09:52:22;;;;;;;15.30;7.30;;;;;;;32.52;39.83;99426.77;112001;1208;99021;-81
2021/09/09 09:54:53;;;;;;;13.80;7.30;;;;;;;32.16;39.47;99423.50;112039;1207;99027;-80
2021/09/09 09:57:23;;;;;;;12.00;6.30;;;;;;;32.03;39.59;99420.06;112005;1209;103683;-80
2021/09/09 09:59:51;;;;;;;17.50;7.60;;;;;;;31.84;39.41;99418.52;112023;1209;99048;-81
2021/09/09 10:02:20;;;;;;;11.70;6.00;;;;;;;31.42;38.62;99419.21;112011;1207;98982;-81
2021/09/09 10:04:50;;;;;;;13.20;6.60;;;;;;;30.70;37.72;99417.42;112049;1208;98328;-80
2021/09/09 10:07:19;;;;;;;15.10;7.10;;;;;;;29.77;36.87;99415.94;112017;1203;99050;-82
2021/09/09 10:09:53;;;;;;;13.20;5.90;;;;;;;29.16;37.81;99414.64;112008;1209;112618;-83
2021/09/09 10:12:25;;;;;;;13.20;6.60;;;;;;;28.84;37.26;99412.35;112040;1207;99289;-81
2021/09/09 10:14:56;;;;;;;14.60;6.70;;;;;;;28.38;37.00;99405.05;112019;1207;107645;-82
2021/09/09 10:17:27;;;;;;;11.20;6.00;;;;;;;28.06;36.68;99409.25;112019;1199;97367;-82
2021/09/09 10:19:56;;;;;;;15.60;6.30;;;;;;;27.71;35.93;99404.55;112022;1207;97367;-83
2021/09/09 10:22:25;;;;;;;13.80;6.20;;;;;;;27.29;35.82;99403.21;111974;1208;114036;-82
2021/09/09 10:25:07;;;;;;;13.50;6.40;;;;;;;26.94;35.81;99405.65;112046;1208;98229;-81
2021/09/09 10:27:42;;;;;;;14.30;6.30;;;;;;;26.57;35.48;99407.97;112059;1208;107540;-82
2021/09/09 10:30:18;;;;;;;18.90;8.90;;;;;;;26.29;36.15;99406.42;111989;1208;98978;-82
2021/09/09 10:32:55;;;;;;;12.50;6.10;;;;;;;26.31;36.52;99404.70;112010;1201;96503;-82
2021/09/09 10:35:30;;;;;;;15.70;6.70;;;;;;;26.47;36.54;99402.38;112041;1208;112470;-81
2021/09/09 10:38:13;;;;;;;13.40;6.30;;;;;;;26.53;36.49;99397.19;112027;1207;96380;-83
2021/09/09 10:40:46;;;;;;;14.60;6.20;;;;;;;26.63;36.61;99392.61;111985;1207;107440;-83
2021/09/09 10:43:23;;;;;;;17.30;6.70;;;;;;;26.73;36.89;99393.38;111961;1199;97862;-83
2021/09/09 10:46:04;;;;;;;13.10;6.50;;;;;;;26.85;36.64;99390.73;111946;1203;98930;-82
2021/09/09 10:48:32;;;;;;;14.20;6.60;;;;;;;26.88;36.57;99388.30;111923;1209;112588;-81
2021/09/09 10:51:09;;;;;;;14.90;6.90;;;;;;;26.89;36.59;99384.92;111994;1207;99061;-82
2021/09/09 10:53:56;;;;;;;15.50;6.50;;;;;;;26.93;36.48;99385.84;112018;1209;107384;-84
2021/09/09 10:56:36;;;;;;;13.10;6.30;;;;;;;26.82;36.42;99385.69;112028;1208;99023;-81
2021/09/09 10:59:19;;;;;;;13.80;5.80;;;;;;;26.71;36.55;99381.55;112047;1203;98961;-82
2021/09/09 11:01:49;;;;;;;13.80;6.00;;;;;;;26.76;36.50;99382.13;112023;1207;112488;-83
2021/09/09 11:04:26;;;;;;;14.30;6.20;;;;;;;26.80;36.45;99380.53;111917;1209;99111;-81
2021/09/09 11:06:55;;;;;;;17.70;7.10;;;;;;;26.83;36.78;99378.64;112020;1208;107919;-81
2021/09/09 11:09:25;;;;;;;15.00;6.20;;;;;;;26.81;36.52;99379.42;112035;1207;98284;-82
2021/09/09 11:12:05;;;;;;;15.30;6.20;;;;;;;26.68;36.24;99375.50;112015;1205;98971;-81
2021/09/09 11:14:33;;;;;;;19.20;7.10;;;;;;;26.52;36.51;99378.96;111963;1207;112504;-81
2021/09/09 11:17:01;;;;;;;16.60;7.10;;;;;;;26.52;36.61;99376.66;112054;1207;99475;-81
2021/09/09 11:19:29;;;;;;;14.20;6.40;;;;;;;26.57;36.70;99373.77;111985;1209;107511;-81